createdAt,value
2018-01-01T00:00:33.538Z,9.30
2018-01-01T00:01:33.526Z,10.10
2018-01-01T00:02:33.519Z,7.70
2018-01-01T00:03:33.509Z,7.80
2018-01-01T00:04:33.502Z,27.10
2018-01-01T00:05:33.498Z,31.30
2018-01-01T00:06:33.481Z,9.60
2018-01-01T00:07:33.475Z,9.00
2018-01-01T00:08:33.463Z,7.70
2018-01-01T00:09:33.458Z,7.40
2018-01-01T00:10:33.481Z,8.60
2018-01-01T00:11:33.434Z,7.40
2018-01-01T00:12:33.422Z,7.60
2018-01-01T00:13:33.437Z,7.90
2018-01-01T00:14:33.412Z,8.30
2018-01-01T00:15:33.393Z,8.80
2018-01-01T00:16:33.386Z,9.10
2018-01-01T00:17:33.378Z,8.70
2018-01-01T00:18:33.372Z,9.60
2018-01-01T00:19:33.373Z,9.50
2018-01-01T00:20:33.378Z,10.60
2018-01-01T00:21:33.345Z,11.10
2018-01-01T00:22:33.328Z,12.80
2018-01-01T00:23:33.318Z,12.00
2018-01-01T00:24:33.316Z,13.20
2018-01-01T00:25:33.301Z,13.70
2018-01-01T00:26:33.304Z,13.70
2018-01-01T00:27:33.284Z,13.50
2018-01-01T00:28:33.277Z,14.90
2018-01-01T00:29:33.269Z,15.00
2018-01-01T00:30:33.257Z,15.90
2018-01-01T00:31:33.249Z,15.70
2018-01-01T00:32:33.236Z,15.60
2018-01-01T00:33:33.230Z,14.90
2018-01-01T00:34:33.217Z,15.20
2018-01-01T00:35:33.210Z,15.80
2018-01-01T00:36:33.201Z,16.70
2018-01-01T00:37:33.189Z,14.90
2018-01-01T00:38:33.186Z,15.10
2018-01-01T00:39:33.180Z,15.90
2018-01-01T00:40:33.187Z,16.20
2018-01-01T00:41:33.150Z,16.10
2018-01-01T00:42:33.142Z,17.00
2018-01-01T00:43:33.134Z,16.70
2018-01-01T00:44:33.130Z,16.40
2018-01-01T00:45:33.142Z,17.20
2018-01-01T00:46:33.102Z,15.90
2018-01-01T00:47:33.100Z,16.00
2018-01-01T00:48:33.086Z,16.10
2018-01-01T00:49:33.075Z,16.80
2018-01-01T00:50:33.068Z,16.30
2018-01-01T00:51:33.056Z,16.40
2018-01-01T00:52:33.066Z,15.30
2018-01-01T00:53:33.039Z,14.70
2018-01-01T00:54:33.030Z,15.40
2018-01-01T00:55:33.024Z,14.80
2018-01-01T00:56:33.008Z,15.30
2018-01-01T00:57:33.000Z,15.20
2018-01-01T00:58:32.993Z,15.70
2018-01-01T00:59:32.980Z,14.40
2018-01-01T01:00:32.970Z,14.60
2018-01-01T01:01:32.964Z,15.50
2018-01-01T01:02:32.951Z,14.60
2018-01-01T01:03:32.944Z,13.90
2018-01-01T01:04:32.934Z,14.80
2018-01-01T01:05:32.923Z,14.60
2018-01-01T01:06:32.913Z,13.90
2018-01-01T01:07:32.905Z,14.70
2018-01-01T01:08:32.897Z,14.80
2018-01-01T01:09:32.885Z,15.30
2018-01-01T01:10:32.879Z,15.90
2018-01-01T01:11:32.874Z,17.60
2018-01-01T01:12:32.860Z,16.60
2018-01-01T01:13:32.852Z,17.80
2018-01-01T01:14:32.835Z,16.50
2018-01-01T01:15:32.830Z,17.00
2018-01-01T01:16:32.831Z,17.60
2018-01-01T01:17:32.812Z,16.80
2018-01-01T01:18:32.798Z,16.40
2018-01-01T01:19:32.800Z,16.40
2018-01-01T01:20:32.781Z,16.40
2018-01-01T01:21:37.673Z,15.30
2018-01-01T01:22:32.764Z,14.60
2018-01-01T01:23:32.752Z,15.50
2018-01-01T01:24:32.742Z,12.50
2018-01-01T01:25:32.733Z,12.00
2018-01-01T01:26:32.727Z,10.70
2018-01-01T01:27:32.716Z,11.40
2018-01-01T01:28:32.706Z,11.30
2018-01-01T01:29:32.690Z,11.20
2018-01-01T01:30:56.675Z,11.80
2018-01-01T01:31:32.678Z,11.30
2018-01-01T01:32:32.682Z,11.20
2018-01-01T01:33:32.654Z,10.90
2018-01-01T01:34:32.643Z,11.40
2018-01-01T01:35:32.631Z,10.00
2018-01-01T01:36:32.625Z,10.60
2018-01-01T01:37:32.621Z,9.80
2018-01-01T01:38:32.606Z,9.70
2018-01-01T01:39:32.595Z,9.90
2018-01-01T01:40:32.586Z,10.00
2018-01-01T01:41:32.579Z,8.60
2018-01-01T01:42:32.568Z,8.40
2018-01-01T01:43:32.554Z,9.50
2018-01-01T01:44:32.549Z,9.20
2018-01-01T01:45:32.538Z,7.80
2018-01-01T01:46:32.528Z,7.80
2018-01-01T01:47:32.520Z,8.10
2018-01-01T01:48:32.513Z,7.40
2018-01-01T01:49:32.508Z,6.90
2018-01-01T01:50:32.489Z,7.20
2018-01-01T01:51:32.481Z,7.00
2018-01-01T01:52:32.465Z,7.10
2018-01-01T01:53:32.463Z,6.60
2018-01-01T01:54:32.451Z,5.20
2018-01-01T01:55:32.438Z,6.30
2018-01-01T01:56:32.428Z,5.20
2018-01-01T01:57:32.417Z,5.90
2018-01-01T01:58:32.410Z,5.90
2018-01-01T01:59:32.411Z,6.10
2018-01-01T02:00:32.397Z,6.30
2018-01-01T02:01:32.388Z,6.10
2018-01-01T02:02:32.373Z,6.20
2018-01-01T02:03:32.360Z,6.10
2018-01-01T02:04:32.350Z,6.30
2018-01-01T02:05:32.353Z,6.30
2018-01-01T02:06:32.335Z,6.70
2018-01-01T02:07:32.323Z,6.40
2018-01-01T02:08:32.313Z,6.60
2018-01-01T02:09:32.303Z,6.40
2018-01-01T02:10:32.294Z,6.50
2018-01-01T02:11:32.287Z,6.80
2018-01-01T02:12:32.270Z,7.20
2018-01-01T02:13:32.265Z,8.00
2018-01-01T02:14:32.256Z,8.40
2018-01-01T02:15:32.240Z,7.60
2018-01-01T02:16:32.236Z,8.30
2018-01-01T02:17:32.227Z,8.10
2018-01-01T02:18:32.220Z,8.50
2018-01-01T02:19:32.211Z,7.90
2018-01-01T02:20:32.200Z,8.20
2018-01-01T02:21:32.188Z,8.10
2018-01-01T02:22:32.179Z,8.10
2018-01-01T02:23:32.168Z,7.90
2018-01-01T02:24:32.160Z,8.60
2018-01-01T02:25:32.146Z,8.10
2018-01-01T02:26:32.139Z,8.20
2018-01-01T02:27:32.130Z,7.80
2018-01-01T02:28:32.121Z,7.30
2018-01-01T02:29:32.116Z,7.50
2018-01-01T02:30:32.098Z,7.70
2018-01-01T02:31:32.089Z,6.90
2018-01-01T02:32:32.079Z,7.10
2018-01-01T02:33:32.071Z,7.80
2018-01-01T02:34:32.056Z,6.00
2018-01-01T02:35:32.050Z,6.60
2018-01-01T02:36:32.043Z,6.80
2018-01-01T02:37:32.040Z,6.70
2018-01-01T02:38:32.026Z,5.30
2018-01-01T02:39:32.008Z,5.10
2018-01-01T02:40:31.998Z,5.00
2018-01-01T02:41:32.004Z,5.80
2018-01-01T02:42:31.983Z,4.50
2018-01-01T02:43:31.974Z,4.60
2018-01-01T02:44:31.960Z,5.00
2018-01-01T02:45:31.955Z,5.10
2018-01-01T02:46:31.948Z,4.90
2018-01-01T02:47:31.942Z,4.90
2018-01-01T02:48:31.936Z,4.90
2018-01-01T02:49:31.923Z,3.80
2018-01-01T02:50:31.905Z,4.30
2018-01-01T02:51:31.896Z,4.60
2018-01-01T02:52:31.888Z,4.40
2018-01-01T02:53:31.873Z,4.30
2018-01-01T02:54:31.864Z,4.20
2018-01-01T02:55:31.861Z,4.00
2018-01-01T02:56:31.902Z,4.00
2018-01-01T02:57:31.836Z,3.80
2018-01-01T02:58:31.831Z,4.20
2018-01-01T02:59:31.821Z,4.40
2018-01-01T03:00:31.813Z,4.60
2018-01-01T03:01:31.796Z,4.10
2018-01-01T03:02:31.792Z,3.90
2018-01-01T03:03:31.777Z,3.80
2018-01-01T03:04:31.767Z,4.10
2018-01-01T03:05:31.769Z,4.00
2018-01-01T03:06:31.747Z,3.60
2018-01-01T03:07:31.734Z,4.10
2018-01-01T03:08:31.726Z,3.70
2018-01-01T03:09:31.713Z,4.10
2018-01-01T03:10:31.705Z,3.60
2018-01-01T03:11:31.703Z,3.70
2018-01-01T03:12:31.694Z,3.80
2018-01-01T03:13:31.685Z,2.90
2018-01-01T03:14:31.664Z,3.50
2018-01-01T03:15:31.673Z,3.40
2018-01-01T03:16:31.665Z,3.00
2018-01-01T03:17:31.674Z,2.60
2018-01-01T03:18:31.674Z,3.30
2018-01-01T03:19:31.621Z,3.00
2018-01-01T03:20:31.610Z,3.00
2018-01-01T03:21:31.597Z,3.20
2018-01-01T03:22:31.589Z,3.20
2018-01-01T03:23:31.600Z,3.10
2018-01-01T03:24:31.568Z,3.20
2018-01-01T03:25:31.566Z,3.30
2018-01-01T03:26:31.548Z,3.00
2018-01-01T03:27:31.550Z,2.40
2018-01-01T03:28:31.558Z,2.80
2018-01-01T03:29:31.547Z,3.10
2018-01-01T03:30:31.509Z,3.20
2018-01-01T03:31:31.501Z,2.70
2018-01-01T03:32:31.491Z,2.80
2018-01-01T03:33:31.480Z,3.20
2018-01-01T03:34:31.469Z,3.10
2018-01-01T03:35:31.462Z,2.90
2018-01-01T03:36:31.454Z,3.10
2018-01-01T03:37:31.440Z,3.00
2018-01-01T03:38:31.431Z,3.20
2018-01-01T03:39:31.418Z,2.80
2018-01-01T03:40:31.412Z,3.40
2018-01-01T03:41:31.402Z,2.80
2018-01-01T03:42:31.387Z,3.50
2018-01-01T03:43:31.383Z,2.90
2018-01-01T03:44:31.372Z,2.90
2018-01-01T03:45:31.363Z,3.10
2018-01-01T03:46:31.351Z,2.80
2018-01-01T03:47:31.344Z,2.80
2018-01-01T03:48:31.332Z,2.90
2018-01-01T03:49:31.319Z,2.80
2018-01-01T03:50:31.316Z,2.50
2018-01-01T03:51:31.298Z,2.90
2018-01-01T03:52:31.294Z,3.50
2018-01-01T03:53:31.281Z,2.40
2018-01-01T03:54:31.271Z,2.70
2018-01-01T03:55:31.261Z,2.70
2018-01-01T03:56:31.248Z,2.60
2018-01-01T03:57:31.243Z,2.70
2018-01-01T03:58:31.230Z,2.60
2018-01-01T03:59:31.234Z,3.00
2018-01-01T04:00:31.214Z,2.30
2018-01-01T04:01:31.200Z,2.60
2018-01-01T04:02:31.193Z,2.90
2018-01-01T04:03:31.188Z,2.60
2018-01-01T04:04:31.170Z,2.90
2018-01-01T04:05:31.166Z,2.60
2018-01-01T04:06:31.152Z,2.70
2018-01-01T04:07:31.160Z,2.20
2018-01-01T04:08:31.140Z,2.70
2018-01-01T04:09:31.126Z,2.50
2018-01-01T04:10:31.119Z,3.00
2018-01-01T04:11:31.097Z,2.60
2018-01-01T04:12:31.089Z,2.50
2018-01-01T04:13:31.080Z,2.50
2018-01-01T04:14:31.097Z,2.70
2018-01-01T04:15:31.058Z,2.50
2018-01-01T04:16:31.044Z,2.30
2018-01-01T04:17:31.038Z,2.70
2018-01-01T04:18:31.040Z,2.50
2018-01-01T04:19:31.019Z,2.50
2018-01-01T04:20:31.012Z,2.70
2018-01-01T04:21:30.996Z,2.70
2018-01-01T04:22:31.003Z,2.30
2018-01-01T04:23:30.977Z,2.30
2018-01-01T04:24:30.983Z,2.40
2018-01-01T04:25:30.955Z,2.10
2018-01-01T04:26:30.945Z,2.40
2018-01-01T04:27:30.940Z,2.30
2018-01-01T04:28:30.928Z,2.60
2018-01-01T04:29:30.917Z,2.60
2018-01-01T04:30:30.908Z,2.20
2018-01-01T04:31:30.899Z,2.60
2018-01-01T04:32:30.894Z,2.90
2018-01-01T04:33:30.886Z,2.20
2018-01-01T04:34:30.874Z,2.30
2018-01-01T04:35:30.857Z,2.50
2018-01-01T04:36:30.844Z,2.30
2018-01-01T04:37:30.838Z,2.40
2018-01-01T04:38:30.822Z,2.50
2018-01-01T04:39:30.815Z,2.50
2018-01-01T04:40:30.813Z,2.50
2018-01-01T04:41:30.797Z,2.10
2018-01-01T04:42:30.784Z,2.20
2018-01-01T04:43:30.774Z,2.20
2018-01-01T04:44:30.760Z,2.10
2018-01-01T04:45:30.754Z,2.40
2018-01-01T04:46:30.741Z,2.10
2018-01-01T04:47:30.749Z,2.20
2018-01-01T04:48:30.729Z,2.90
2018-01-01T04:49:30.711Z,1.80
2018-01-01T04:50:30.703Z,2.50
2018-01-01T04:51:30.696Z,2.30
2018-01-01T04:52:30.680Z,2.10
2018-01-01T04:53:30.672Z,2.20
2018-01-01T04:54:30.663Z,1.90
2018-01-01T04:55:30.651Z,2.00
2018-01-01T04:56:30.645Z,1.90
2018-01-01T04:57:30.632Z,2.10
2018-01-01T04:58:30.623Z,1.90
2018-01-01T04:59:30.616Z,1.80
2018-01-01T05:00:30.603Z,2.00
2018-01-01T05:01:30.589Z,2.00
2018-01-01T05:02:30.581Z,2.10
2018-01-01T05:03:30.577Z,2.00
2018-01-01T05:04:30.561Z,1.90
2018-01-01T05:05:30.553Z,1.80
2018-01-01T05:06:30.539Z,2.10
2018-01-01T05:07:30.529Z,2.70
2018-01-01T05:08:30.522Z,2.60
2018-01-01T05:09:30.555Z,2.00
2018-01-01T05:10:30.521Z,2.20
2018-01-01T05:11:30.497Z,2.30
2018-01-01T05:12:30.484Z,1.80
2018-01-01T05:13:30.469Z,2.40
2018-01-01T05:14:30.471Z,2.30
2018-01-01T05:15:30.492Z,2.20
2018-01-01T05:16:30.441Z,2.20
2018-01-01T05:17:30.433Z,2.20
2018-01-01T05:18:30.421Z,2.70
2018-01-01T05:19:30.411Z,2.00
2018-01-01T05:20:30.400Z,2.60
2018-01-01T05:21:30.393Z,1.90
2018-01-01T05:22:30.376Z,2.30
2018-01-01T05:23:30.366Z,2.10
2018-01-01T05:24:30.364Z,2.20
2018-01-01T05:25:30.348Z,2.30
2018-01-01T05:26:30.349Z,2.40
2018-01-01T05:27:30.348Z,2.10
2018-01-01T05:28:30.319Z,2.40
2018-01-01T05:29:30.319Z,2.30
2018-01-01T05:30:30.304Z,2.20
2018-01-01T05:31:30.285Z,2.40
2018-01-01T05:32:30.284Z,2.90
2018-01-01T05:33:30.287Z,2.20
2018-01-01T05:34:30.261Z,2.30
2018-01-01T05:35:30.247Z,2.20
2018-01-01T05:36:30.244Z,2.10
2018-01-01T05:37:30.224Z,2.40
2018-01-01T05:38:30.214Z,2.00
2018-01-01T05:39:30.229Z,2.50
2018-01-01T05:40:30.204Z,2.50
2018-01-01T05:41:30.187Z,2.20
2018-01-01T05:42:30.179Z,2.00
2018-01-01T05:43:30.165Z,2.50
2018-01-01T05:44:30.152Z,2.20
2018-01-01T05:45:30.146Z,2.80
2018-01-01T05:46:30.136Z,2.80
2018-01-01T05:47:30.127Z,2.60
2018-01-01T05:48:30.118Z,2.60
2018-01-01T05:49:30.104Z,2.40
2018-01-01T05:50:30.090Z,2.50
2018-01-01T05:51:30.080Z,2.30
2018-01-01T05:52:30.085Z,2.50
2018-01-01T05:53:30.066Z,2.20
2018-01-01T05:54:30.056Z,2.00
2018-01-01T05:55:30.042Z,2.50
2018-01-01T05:56:30.031Z,2.30
2018-01-01T05:57:30.024Z,2.40
2018-01-01T05:58:30.031Z,2.40
2018-01-01T05:59:30.016Z,2.20
2018-01-01T06:00:30.033Z,2.40
2018-01-01T06:01:30.001Z,2.70
2018-01-01T06:02:29.973Z,2.60
2018-01-01T06:03:29.961Z,2.50
2018-01-01T06:04:29.946Z,2.60
2018-01-01T06:05:29.938Z,2.90
2018-01-01T06:06:29.927Z,2.50
2018-01-01T06:07:29.926Z,3.10
2018-01-01T06:08:29.911Z,3.00
2018-01-01T06:09:29.900Z,2.60
2018-01-01T06:10:29.889Z,2.50
2018-01-01T06:11:29.873Z,2.60
2018-01-01T06:12:29.874Z,3.10
2018-01-01T06:13:29.859Z,2.70
2018-01-01T06:14:29.853Z,2.70
2018-01-01T06:15:29.838Z,2.70
2018-01-01T06:16:29.823Z,2.70
2018-01-01T06:17:29.822Z,2.60
2018-01-01T06:18:29.806Z,2.50
2018-01-01T06:19:29.794Z,3.40
2018-01-01T06:20:29.792Z,2.50
2018-01-01T06:21:29.776Z,2.90
2018-01-01T06:22:29.763Z,2.90
2018-01-01T06:23:29.752Z,2.80
2018-01-01T06:24:29.745Z,2.40
2018-01-01T06:25:29.732Z,3.10
2018-01-01T06:26:29.723Z,3.30
2018-01-01T06:27:29.711Z,2.90
2018-01-01T06:28:29.703Z,2.70
2018-01-01T06:29:29.691Z,3.50
2018-01-01T06:30:29.682Z,2.60
2018-01-01T06:31:29.670Z,3.50
2018-01-01T06:32:29.663Z,2.80
2018-01-01T06:33:29.653Z,2.70
2018-01-01T06:34:29.634Z,2.60
2018-01-01T06:35:29.628Z,2.70
2018-01-01T06:36:29.620Z,2.60
2018-01-01T06:37:29.612Z,3.20
2018-01-01T06:38:29.598Z,2.60
2018-01-01T06:39:29.596Z,3.00
2018-01-01T06:40:29.578Z,3.00
2018-01-01T06:41:29.564Z,4.10
2018-01-01T06:42:29.555Z,3.40
2018-01-01T06:43:29.544Z,3.20
2018-01-01T06:44:29.542Z,2.80
2018-01-01T06:45:29.527Z,2.60
2018-01-01T06:46:29.513Z,2.60
2018-01-01T06:47:29.501Z,2.80
2018-01-01T06:48:29.492Z,2.60
2018-01-01T06:49:29.488Z,3.00
2018-01-01T06:50:29.471Z,3.10
2018-01-01T06:51:29.462Z,2.80
2018-01-01T06:52:29.492Z,2.70
2018-01-01T06:53:29.452Z,3.10
2018-01-01T06:54:29.435Z,2.40
2018-01-01T06:55:29.428Z,3.00
2018-01-01T06:56:29.409Z,2.80
2018-01-01T06:57:29.395Z,2.20
2018-01-01T06:58:29.393Z,3.20
2018-01-01T06:59:29.383Z,2.50
2018-01-01T07:00:29.366Z,2.60
2018-01-01T07:01:29.360Z,2.70
2018-01-01T07:02:29.349Z,2.50
2018-01-01T07:03:29.337Z,3.00
2018-01-01T07:04:29.325Z,3.10
2018-01-01T07:05:29.319Z,2.50
2018-01-01T07:06:29.321Z,2.40
2018-01-01T07:07:29.298Z,2.60
2018-01-01T07:08:29.287Z,3.00
2018-01-01T07:09:29.277Z,2.40
2018-01-01T07:10:29.259Z,2.70
2018-01-01T07:11:29.269Z,2.40
2018-01-01T07:12:29.241Z,2.50
2018-01-01T07:13:29.231Z,2.60
2018-01-01T07:14:29.222Z,2.80
2018-01-01T07:15:29.210Z,2.50
2018-01-01T07:16:29.199Z,2.70
2018-01-01T07:17:29.192Z,2.80
2018-01-01T07:18:29.176Z,2.70
2018-01-01T07:19:29.165Z,3.40
2018-01-01T07:20:29.157Z,2.50
2018-01-01T07:21:29.153Z,2.90
2018-01-01T07:22:29.135Z,2.50
2018-01-01T07:23:29.122Z,1.90
2018-01-01T07:24:29.114Z,1.20
2018-01-01T07:25:29.102Z,1.10
2018-01-01T07:26:29.094Z,0.90
2018-01-01T07:27:29.104Z,0.90
2018-01-01T07:28:29.079Z,0.80
2018-01-01T07:29:29.061Z,0.70
2018-01-01T07:30:29.053Z,0.80
2018-01-01T07:31:29.042Z,0.90
2018-01-01T07:32:29.031Z,0.90
2018-01-01T07:33:29.018Z,1.00
2018-01-01T07:34:29.017Z,0.90
2018-01-01T07:35:29.005Z,1.00
2018-01-01T07:36:28.987Z,1.00
2018-01-01T07:37:28.982Z,1.20
2018-01-01T07:38:28.973Z,1.40
2018-01-01T07:39:28.955Z,1.40
2018-01-01T07:40:28.949Z,1.30
2018-01-01T07:41:28.936Z,1.40
2018-01-01T07:42:28.918Z,1.10
2018-01-01T07:43:28.913Z,1.20
2018-01-01T07:44:28.897Z,1.40
2018-01-01T07:45:28.893Z,1.60
2018-01-01T07:46:28.878Z,1.50
2018-01-01T07:47:28.864Z,1.70
2018-01-01T07:48:28.858Z,1.30
2018-01-01T07:49:28.856Z,1.50
2018-01-01T07:50:28.843Z,1.50
2018-01-01T07:51:28.828Z,2.20
2018-01-01T07:52:28.813Z,2.00
2018-01-01T07:53:28.801Z,2.30
2018-01-01T07:54:28.789Z,2.20
2018-01-01T07:55:28.783Z,2.60
2018-01-01T07:56:28.782Z,3.00
2018-01-01T07:57:28.765Z,3.30
2018-01-01T07:58:28.750Z,3.30
2018-01-01T07:59:28.745Z,3.50
2018-01-01T08:00:28.728Z,3.40
2018-01-01T08:01:28.718Z,3.20
2018-01-01T08:02:28.704Z,3.10
2018-01-01T08:03:28.705Z,3.20
2018-01-01T08:04:28.684Z,3.10
2018-01-01T08:05:28.673Z,3.00
2018-01-01T08:06:28.664Z,3.30
2018-01-01T08:07:28.662Z,3.10
2018-01-01T08:08:28.651Z,2.80
2018-01-01T08:09:28.635Z,3.50
2018-01-01T08:10:28.623Z,2.80
2018-01-01T08:11:28.607Z,3.70
2018-01-01T08:12:28.596Z,3.40
2018-01-01T08:13:28.597Z,3.90
2018-01-01T08:14:28.588Z,3.30
2018-01-01T08:15:28.563Z,3.00
2018-01-01T08:16:28.558Z,3.30
2018-01-01T08:17:28.550Z,2.70
2018-01-01T08:18:28.542Z,2.90
2018-01-01T08:19:28.521Z,3.10
2018-01-01T08:20:28.525Z,3.30
2018-01-01T08:21:28.501Z,3.00
2018-01-01T08:22:28.496Z,3.30
2018-01-01T08:23:28.478Z,3.00
2018-01-01T08:24:28.476Z,2.90
2018-01-01T08:25:28.463Z,3.60
2018-01-01T08:26:28.451Z,2.90
2018-01-01T08:27:28.441Z,2.60
2018-01-01T08:28:28.428Z,3.30
2018-01-01T08:29:28.420Z,2.90
2018-01-01T08:30:28.407Z,2.90
2018-01-01T08:31:28.399Z,2.70
2018-01-01T08:32:28.387Z,2.80
2018-01-01T08:33:28.375Z,2.90
2018-01-01T08:34:28.366Z,2.80
2018-01-01T08:35:28.355Z,2.80
2018-01-01T08:36:28.345Z,2.70
2018-01-01T08:37:28.349Z,2.70
2018-01-01T08:38:28.321Z,3.00
2018-01-01T08:39:28.309Z,2.50
2018-01-01T08:40:28.310Z,2.60
2018-01-01T08:41:28.293Z,2.80
2018-01-01T08:42:28.286Z,2.60
2018-01-01T08:43:28.271Z,3.40
2018-01-01T08:44:28.261Z,2.60
2018-01-01T08:45:28.252Z,2.60
2018-01-01T08:46:28.239Z,2.40
2018-01-01T08:47:28.230Z,2.80
2018-01-01T08:48:28.219Z,2.80
2018-01-01T08:49:28.212Z,3.10
2018-01-01T08:50:28.203Z,2.80
2018-01-01T08:51:28.221Z,2.70
2018-01-01T08:52:28.179Z,3.00
2018-01-01T08:53:28.231Z,2.60
2018-01-01T08:54:28.181Z,3.00
2018-01-01T08:55:28.172Z,3.10
2018-01-01T08:56:28.136Z,2.70
2018-01-01T08:57:28.135Z,2.90
2018-01-01T08:58:28.113Z,3.10
2018-01-01T08:59:28.112Z,3.10
2018-01-01T09:00:28.099Z,2.60
2018-01-01T09:01:28.086Z,3.00
2018-01-01T09:02:28.072Z,2.70
2018-01-01T09:03:28.062Z,2.80
2018-01-01T09:04:28.049Z,2.80
2018-01-01T09:05:28.040Z,2.80
2018-01-01T09:06:28.045Z,2.60
2018-01-01T09:07:28.032Z,2.60
2018-01-01T09:08:28.009Z,2.70
2018-01-01T09:09:28.006Z,2.70
2018-01-01T09:10:28.013Z,2.70
2018-01-01T09:11:27.988Z,2.90
2018-01-01T09:12:27.981Z,2.50
2018-01-01T09:13:27.962Z,2.40
2018-01-01T09:14:27.953Z,2.40
2018-01-01T09:15:27.938Z,2.50
2018-01-01T09:16:27.933Z,2.80
2018-01-01T09:17:27.931Z,2.80
2018-01-01T09:18:27.908Z,2.50
2018-01-01T09:19:27.903Z,2.50
2018-01-01T09:20:27.890Z,2.10
2018-01-01T09:21:27.899Z,2.80
2018-01-01T09:22:27.897Z,2.50
2018-01-01T09:23:27.897Z,3.00
2018-01-01T09:24:27.850Z,2.30
2018-01-01T09:25:27.861Z,2.70
2018-01-01T09:26:27.832Z,2.70
2018-01-01T09:27:27.822Z,2.70
2018-01-01T09:28:27.805Z,2.90
2018-01-01T09:29:27.795Z,2.50
2018-01-01T09:30:27.785Z,2.90
2018-01-01T09:31:27.776Z,2.80
2018-01-01T09:32:27.767Z,2.80
2018-01-01T09:33:27.761Z,2.50
2018-01-01T09:34:27.744Z,2.40
2018-01-01T09:35:27.742Z,2.80
2018-01-01T09:36:27.723Z,3.20
2018-01-01T09:37:27.721Z,2.70
2018-01-01T09:38:27.708Z,2.60
2018-01-01T09:39:27.698Z,2.70
2018-01-01T09:40:27.687Z,2.80
2018-01-01T09:41:27.686Z,2.80
2018-01-01T09:42:27.662Z,2.70
2018-01-01T09:43:27.661Z,2.90
2018-01-01T09:44:27.644Z,2.70
2018-01-01T09:45:27.640Z,3.00
2018-01-01T09:46:27.647Z,3.00
2018-01-01T09:47:27.612Z,3.30
2018-01-01T09:48:27.612Z,2.60
2018-01-01T09:49:27.601Z,2.80
2018-01-01T09:50:27.587Z,2.70
2018-01-01T09:51:27.580Z,2.70
2018-01-01T09:52:27.567Z,2.90
2018-01-01T09:53:27.559Z,2.70
2018-01-01T09:54:27.549Z,2.60
2018-01-01T09:55:27.533Z,2.50
2018-01-01T09:56:27.540Z,2.70
2018-01-01T09:57:27.515Z,2.80
2018-01-01T09:58:27.508Z,2.50
2018-01-01T09:59:27.588Z,2.50
2018-01-01T10:00:27.486Z,2.80
2018-01-01T10:01:27.479Z,3.00
2018-01-01T10:02:27.472Z,2.60
2018-01-01T10:03:27.464Z,3.00
2018-01-01T10:04:27.444Z,3.10
2018-01-01T10:05:27.439Z,2.80
2018-01-01T10:06:27.428Z,3.00
2018-01-01T10:07:27.427Z,3.10
2018-01-01T10:08:27.410Z,3.00
2018-01-01T10:09:27.396Z,2.80
2018-01-01T10:10:27.390Z,2.50
2018-01-01T10:11:27.380Z,2.70
2018-01-01T10:12:27.385Z,3.00
2018-01-01T10:13:27.361Z,2.80
2018-01-01T10:14:27.347Z,2.60
2018-01-01T10:15:27.340Z,2.40
2018-01-01T10:16:27.341Z,2.50
2018-01-01T10:17:27.332Z,2.70
2018-01-01T10:18:27.315Z,2.10
2018-01-01T10:19:27.302Z,2.50
2018-01-01T10:20:27.293Z,2.20
2018-01-01T10:21:27.282Z,2.70
2018-01-01T10:22:27.274Z,2.30
2018-01-01T10:23:27.261Z,2.10
2018-01-01T10:24:27.253Z,2.50
2018-01-01T10:25:27.244Z,2.10
2018-01-01T10:26:27.235Z,2.20
2018-01-01T10:27:27.223Z,2.30
2018-01-01T10:28:27.223Z,1.80
2018-01-01T10:29:27.208Z,2.30
2018-01-01T10:30:27.204Z,1.80
2018-01-01T10:31:27.188Z,2.10
2018-01-01T10:32:27.178Z,1.80
2018-01-01T10:33:27.201Z,1.70
2018-01-01T10:34:27.165Z,2.10
2018-01-01T10:35:27.154Z,1.80
2018-01-01T10:36:27.142Z,1.90
2018-01-01T10:37:27.135Z,1.60
2018-01-01T10:38:27.137Z,2.00
2018-01-01T10:39:27.113Z,1.70
2018-01-01T10:40:27.106Z,1.90
2018-01-01T10:41:27.097Z,1.60
2018-01-01T10:42:27.085Z,1.60
2018-01-01T10:43:27.072Z,1.60
2018-01-01T10:44:27.068Z,1.50
2018-01-01T10:45:27.058Z,1.60
2018-01-01T10:46:27.065Z,1.70
2018-01-01T10:47:27.038Z,1.70
2018-01-01T10:48:27.024Z,1.60
2018-01-01T10:49:27.020Z,1.80
2018-01-01T10:50:27.005Z,1.40
2018-01-01T10:51:26.997Z,2.00
2018-01-01T10:52:26.990Z,1.80
2018-01-01T10:53:26.982Z,1.60
2018-01-01T10:54:26.993Z,1.40
2018-01-01T10:55:26.962Z,1.60
2018-01-01T10:56:26.949Z,1.30
2018-01-01T10:57:26.950Z,1.70
2018-01-01T10:58:26.934Z,1.60
2018-01-01T10:59:26.923Z,1.60
2018-01-01T11:00:26.917Z,1.70
2018-01-01T11:01:26.910Z,1.60
2018-01-01T11:02:26.894Z,2.10
2018-01-01T11:03:26.880Z,2.00
2018-01-01T11:04:26.871Z,1.90
2018-01-01T11:05:26.864Z,2.00
2018-01-01T11:06:26.854Z,2.00
2018-01-01T11:07:26.851Z,1.80
2018-01-01T11:08:26.835Z,1.80
2018-01-01T11:09:26.825Z,2.20
2018-01-01T11:10:26.818Z,1.90
2018-01-01T11:11:26.802Z,2.00
2018-01-01T11:12:26.796Z,2.20
2018-01-01T11:13:26.788Z,2.00
2018-01-01T11:14:26.776Z,1.90
2018-01-01T11:15:26.766Z,2.20
2018-01-01T11:16:26.755Z,2.30
2018-01-01T11:17:26.744Z,2.10
2018-01-01T11:18:26.731Z,2.30
2018-01-01T11:19:26.727Z,2.30
2018-01-01T11:20:26.749Z,2.30
2018-01-01T11:21:26.703Z,2.00
2018-01-01T11:22:26.720Z,2.10
2018-01-01T11:23:26.685Z,1.90
2018-01-01T11:24:26.681Z,2.40
2018-01-01T11:25:26.673Z,2.10
2018-01-01T11:26:26.657Z,2.20
2018-01-01T11:27:26.660Z,2.50
2018-01-01T11:28:26.646Z,2.10
2018-01-01T11:29:26.625Z,2.10
2018-01-01T11:30:26.619Z,2.50
2018-01-01T11:31:26.628Z,2.10
2018-01-01T11:32:26.611Z,2.40
2018-01-01T11:33:26.590Z,2.40
2018-01-01T11:34:26.579Z,2.20
2018-01-01T11:35:26.572Z,2.50
2018-01-01T11:36:26.561Z,2.70
2018-01-01T11:37:26.554Z,2.60
2018-01-01T11:38:26.537Z,2.50
2018-01-01T11:39:26.528Z,2.30
2018-01-01T11:40:26.521Z,2.50
2018-01-01T11:41:26.512Z,2.40
2018-01-01T11:42:26.506Z,2.60
2018-01-01T11:43:26.499Z,2.60
2018-01-01T11:44:26.485Z,2.70
2018-01-01T11:45:26.473Z,2.90
2018-01-01T11:46:26.466Z,2.60
2018-01-01T11:47:26.453Z,2.60
2018-01-01T11:48:26.446Z,2.70
2018-01-01T11:49:26.437Z,2.70
2018-01-01T11:50:26.423Z,2.60
2018-01-01T11:51:26.423Z,2.70
2018-01-01T11:52:26.408Z,2.70
2018-01-01T11:53:26.394Z,2.80
2018-01-01T11:54:26.385Z,2.70
2018-01-01T11:55:26.379Z,2.70
2018-01-01T11:56:26.366Z,2.50
2018-01-01T11:57:26.357Z,3.30
2018-01-01T11:58:26.347Z,2.90
2018-01-01T11:59:26.345Z,2.80
2018-01-01T12:00:26.350Z,2.40
2018-01-01T12:01:26.324Z,2.20
2018-01-01T12:02:26.312Z,2.60
2018-01-01T12:03:26.303Z,2.90
2018-01-01T12:04:26.292Z,2.50
2018-01-01T12:05:26.285Z,2.70
2018-01-01T12:06:26.274Z,2.60
2018-01-01T12:07:26.268Z,2.60
2018-01-01T12:08:26.264Z,2.60
2018-01-01T12:09:26.247Z,2.60
2018-01-01T12:10:26.234Z,2.80
2018-01-01T12:11:26.231Z,2.60
2018-01-01T12:12:26.258Z,2.50
2018-01-01T12:13:26.212Z,2.40
2018-01-01T12:14:26.212Z,2.60
2018-01-01T12:15:26.191Z,2.60
2018-01-01T12:16:26.182Z,2.80
2018-01-01T12:17:26.172Z,2.70
2018-01-01T12:18:26.162Z,2.70
2018-01-01T12:19:26.154Z,2.40
2018-01-01T12:20:26.141Z,2.90
2018-01-01T12:21:26.137Z,2.30
2018-01-01T12:22:26.132Z,2.60
2018-01-01T12:23:26.118Z,2.70
2018-01-01T12:24:26.104Z,2.60
2018-01-01T12:25:26.093Z,2.60
2018-01-01T12:26:26.096Z,2.90
2018-01-01T12:27:26.078Z,2.80
2018-01-01T12:28:26.071Z,2.60
2018-01-01T12:29:26.062Z,2.70
2018-01-01T12:30:26.048Z,2.50
2018-01-01T12:31:26.039Z,2.80
2018-01-01T12:32:26.033Z,2.60
2018-01-01T12:33:29.193Z,2.60
2018-01-01T12:34:28.134Z,2.70
2018-01-01T12:35:29.773Z,2.50
2018-01-01T12:36:26.060Z,2.40
2018-01-01T12:37:25.987Z,2.30
2018-01-01T12:38:25.976Z,2.40
2018-01-01T12:39:25.967Z,2.50
2018-01-01T12:40:25.964Z,2.40
2018-01-01T12:41:25.961Z,2.50
2018-01-01T12:42:25.954Z,2.80
2018-01-01T12:43:25.968Z,3.00
2018-01-01T12:44:25.938Z,2.50
2018-01-01T12:45:25.911Z,2.70
2018-01-01T12:46:25.901Z,2.70
2018-01-01T12:47:25.892Z,2.70
2018-01-01T12:48:25.883Z,2.80
2018-01-01T12:49:25.873Z,2.70
2018-01-01T12:50:25.861Z,2.70
2018-01-01T12:51:25.859Z,2.20
2018-01-01T12:52:25.843Z,2.40
2018-01-01T12:53:25.840Z,2.60
2018-01-01T12:54:25.827Z,3.00
2018-01-01T12:55:25.826Z,2.20
2018-01-01T12:56:25.806Z,2.80
2018-01-01T12:57:25.796Z,2.40
2018-01-01T12:58:25.788Z,2.90
2018-01-01T12:59:25.778Z,2.60
2018-01-01T13:00:25.772Z,2.60
2018-01-01T13:01:25.759Z,2.30
2018-01-01T13:02:25.749Z,2.80
2018-01-01T13:03:25.738Z,2.80
2018-01-01T13:04:25.731Z,2.90
2018-01-01T13:05:25.722Z,2.80
2018-01-01T13:06:25.714Z,2.70
2018-01-01T13:07:25.705Z,2.50
2018-01-01T13:08:25.694Z,2.30
2018-01-01T13:09:25.695Z,2.40
2018-01-01T13:10:25.677Z,2.90
2018-01-01T13:11:25.671Z,2.80
2018-01-01T13:12:25.656Z,2.90
2018-01-01T13:13:25.650Z,2.90
2018-01-01T13:14:25.637Z,2.50
2018-01-01T13:15:25.631Z,2.80